Albany, Australia
Current Conditions -  °F | °C
As of 6:00 PM on Sunday 25 Jan 2015 (Local Time) from YABA Reporting Station
Scattered Clouds Scattered Clouds  
Wind Chill: 66°   Ceiling: Unl
Heat Index: 66°   Visibility: 6mi
Dew Point: 46°   Wind: 15mph
Humidity: 49%   Direction: 110°ESE
Pressure: 30.12"   Gusts: NA
Location:  35.02°S, 117.88°E
Report Text: YABA 251000Z AUTO 11013KT 9999 // SCT035 19/08 Q1020
Loading
Personal Weather Stations






























Interactive Weather Map New forecast layout! Learn more

10-Day Weather Forecast

Advertisements
Track Severe Weather on mobile